首页
METAR-TAF:

METAR-TAF

机场 :

尼亞加拉瀑布城, 紐約州, 美国

纬度: 43-06-26N, 经度: 078-56-43W, 海拔: 180米

当前天气观测

该预报发布于21分钟前的05:53 UTC
风速8节,风向西
温度 1°C
湿度 75%
气压 1014 hPa
能見度: 16.1公里
天空无云

METAR: KIAG 020553Z AUTO 28008KT 10SM CLR 01/M03 A2994 RMK AO2 SLP149 T00061033 10072 20000 56003

时间: 02:14 (06:14 UTC)

预报

该预报发布于43分钟前的05:31 UTC
预报有效从02日的 06点(UTC)到 03日的 06点(UTC)
风速5节,风向西
能見度: 10公里
散云层高于12000英尺
从 02日的 1300点(UTC)
风速7节,风向西北
能見度: 10公里
多云层高于7000英尺
从 02日的 1600点(UTC)
风速10节,风向北转西北,有时为19节阵风
能見度: 10公里
散云层高于8000英尺
从 02日的 2200点(UTC)
风速12节,风向西北
能見度: 10公里
少量云层高于9000英尺

TAF: KIAG 020531Z 0206/0306 28005KT P6SM SCT120 FM021300 32007KT P6SM BKN070 FM021600 33010G19KT P6SM SCT080 FM022200 32012KT P6SM FEW090

超过4000个机场的气象观测和天气预报(METAR&TAF报告)。

可查询的气象台以黄色和红色小点在地图上表示。

将鼠标移到小点上方,可查看气象台名称。

然后点击查看天气观测和预报。

如需切换地图:点击带黑十字的绿色按钮放大地图;点击带横线的绿色按钮缩小地图;或者点击绿色箭头查看邻近地区的地图。


METAR-TAF: